KFFT/FFT METAR and TAF weather

Enter ICAO airport designator
Station Type Date Time Source
KFFT METAR 2019/11/15 04:53 UTC NOAA

KFFT 150453Z AUTO 00000KT 10SM CLR M02/M05 A3031 RMK AO2 SLP271 T10171050 400941067


Station Type Date Time Source
KFFT Decoded METAR 2019/11/15 04:53 UTC NOAA

FRANKFORT CAPITAL CITY AIRPORT , KY, United States (KFFT) 38-11N 84-54W 236M
Nov 14, 2019 - 11:53 PM EST / 2019.11.15 0453 UTC
Wind: Calm:0
Visibility: 10 mile(s):0
Sky conditions: clear
Temperature: 28.9 F (-1.7 C)
Dew Point: 23.0 F (-5.0 C)
Relative Humidity: 78%
Pressure (altimeter): 30.31 in. Hg (1026 hPa)
ob: KFFT 150453Z AUTO 00000KT 10SM CLR M02/M05 A3031 RMK AO2 SLP271 T10171050 400941067
cycle: 5

Station Type Date Time Source
KFFT TAF UTC NOAA

Error!

Example: see airport list